createdAt,value
2023-01-26T00:01:55.762Z,12.94
2023-01-26T00:04:22.164Z,12.95
2023-01-26T00:06:48.638Z,12.94
2023-01-26T00:09:15.508Z,12.93
2023-01-26T00:11:41.984Z,12.93
2023-01-26T00:14:08.530Z,12.93
2023-01-26T00:16:35.370Z,12.93
2023-01-26T00:19:02.115Z,12.92
2023-01-26T00:21:29.495Z,12.92
2023-01-26T00:23:55.889Z,12.92
2023-01-26T00:26:22.588Z,12.92
2023-01-26T00:28:49.289Z,12.92
2023-01-26T00:31:15.819Z,12.90
2023-01-26T00:33:42.194Z,12.88
2023-01-26T00:36:08.821Z,12.91
2023-01-26T00:38:35.469Z,12.90
2023-01-26T00:41:02.218Z,12.88
2023-01-26T00:43:29.314Z,12.91
2023-01-26T00:45:55.796Z,12.88
2023-01-26T00:48:24.660Z,12.90
2023-01-26T00:50:51.988Z,12.89
2023-01-26T00:53:18.600Z,12.88
2023-01-26T00:55:45.321Z,12.87
2023-01-26T00:58:12.271Z,12.88
2023-01-26T01:00:38.830Z,12.86
2023-01-26T01:03:05.544Z,12.87
2023-01-26T01:05:31.968Z,12.85
2023-01-26T01:07:58.415Z,12.87
2023-01-26T01:10:25.284Z,12.86
2023-01-26T01:12:52.030Z,12.85
2023-01-26T01:15:18.651Z,12.85
2023-01-26T01:17:45.240Z,12.84
2023-01-26T01:20:12.194Z,12.85
2023-01-26T01:22:38.767Z,12.83
2023-01-26T01:25:05.581Z,12.84
2023-01-26T01:27:32.099Z,12.85
2023-01-26T01:29:58.884Z,12.83
2023-01-26T01:32:25.664Z,12.83
2023-01-26T01:34:52.114Z,12.84
2023-01-26T01:37:19.200Z,12.82
2023-01-26T01:39:46.527Z,12.82
2023-01-26T01:42:12.936Z,12.81
2023-01-26T01:44:39.859Z,12.81
2023-01-26T01:47:06.262Z,12.81
2023-01-26T01:49:33.015Z,12.82
2023-01-26T01:51:59.897Z,12.82
2023-01-26T01:54:26.345Z,12.82
2023-01-26T01:56:52.719Z,12.81
2023-01-26T01:59:19.337Z,12.80
2023-01-26T02:01:46.325Z,12.80
2023-01-26T02:04:13.413Z,12.77
2023-01-26T02:06:40.267Z,12.79
2023-01-26T02:09:07.100Z,12.80
2023-01-26T02:11:34.361Z,12.78
2023-01-26T02:14:01.231Z,12.78
2023-01-26T02:16:27.858Z,12.77
2023-01-26T02:18:54.310Z,12.77
2023-01-26T02:21:21.379Z,12.77
2023-01-26T02:23:47.983Z,12.78
2023-01-26T02:26:14.304Z,12.78
2023-01-26T02:28:41.013Z,12.78
2023-01-26T02:31:07.541Z,12.77
2023-01-26T02:33:34.390Z,12.77
2023-01-26T02:36:01.036Z,12.77
2023-01-26T02:38:27.494Z,12.74
2023-01-26T02:40:53.928Z,12.76
2023-01-26T02:43:20.240Z,12.73
2023-01-26T02:45:46.785Z,12.75
2023-01-26T02:48:13.646Z,12.73
2023-01-26T02:50:40.370Z,12.73
2023-01-26T02:53:06.800Z,12.72
2023-01-26T02:55:33.209Z,12.74
2023-01-26T02:57:59.623Z,12.73
2023-01-26T03:00:26.369Z,12.72
2023-01-26T03:02:52.982Z,12.73
2023-01-26T03:05:19.433Z,12.72
2023-01-26T03:07:45.880Z,12.72
2023-01-26T03:10:13.050Z,12.71
2023-01-26T03:12:39.753Z,12.70
2023-01-26T03:15:06.199Z,12.72
2023-01-26T03:17:32.931Z,12.70
2023-01-26T03:19:59.861Z,12.71
2023-01-26T03:22:26.828Z,12.71
2023-01-26T03:24:53.315Z,12.69
2023-01-26T03:27:20.144Z,12.69
2023-01-26T03:29:47.100Z,12.69
2023-01-26T03:32:13.531Z,12.69
2023-01-26T03:34:40.351Z,12.68
2023-01-26T03:37:07.266Z,12.68
2023-01-26T03:39:33.658Z,12.68
2023-01-26T03:42:00.158Z,12.69
2023-01-26T03:44:26.819Z,12.68
2023-01-26T03:46:53.826Z,12.66
2023-01-26T03:49:20.560Z,12.67
2023-01-26T03:51:47.387Z,12.68
2023-01-26T03:54:14.430Z,12.66
2023-01-26T03:56:40.802Z,12.68
2023-01-26T03:59:07.240Z,12.67
2023-01-26T04:01:33.683Z,12.66
2023-01-26T04:04:00.199Z,12.65
2023-01-26T04:06:27.136Z,12.65
2023-01-26T04:08:54.073Z,12.64
2023-01-26T04:11:20.645Z,12.64
2023-01-26T04:13:47.165Z,12.65
2023-01-26T04:16:14.193Z,12.63
2023-01-26T04:18:40.601Z,12.63
2023-01-26T04:21:07.203Z,12.62
2023-01-26T04:23:33.985Z,12.63
2023-01-26T04:26:00.508Z,12.63
2023-01-26T04:28:26.897Z,12.63
2023-01-26T04:30:53.557Z,12.60
2023-01-26T04:33:19.911Z,12.60
2023-01-26T04:35:46.737Z,12.61
2023-01-26T04:38:13.485Z,12.61
2023-01-26T04:40:40.095Z,12.59
2023-01-26T04:43:06.507Z,12.58
2023-01-26T04:45:33.695Z,12.59
2023-01-26T04:48:00.712Z,12.59
2023-01-26T04:50:27.592Z,12.59
2023-01-26T04:52:54.417Z,12.58
2023-01-26T04:55:20.804Z,12.59
2023-01-26T04:57:47.652Z,12.57
2023-01-26T05:00:14.463Z,12.58
2023-01-26T05:02:41.194Z,12.58
2023-01-26T05:05:07.702Z,12.59
2023-01-26T05:07:34.470Z,12.57
2023-01-26T05:10:01.067Z,12.58
2023-01-26T05:12:27.851Z,12.58
2023-01-26T05:14:55.072Z,12.57
2023-01-26T05:17:21.494Z,12.57
2023-01-26T05:19:48.458Z,12.57
2023-01-26T05:22:15.235Z,12.57
2023-01-26T05:24:41.632Z,12.55
2023-01-26T05:27:07.930Z,12.56
2023-01-26T05:29:34.800Z,12.57
2023-01-26T05:32:01.202Z,12.56
2023-01-26T05:34:27.617Z,12.56
2023-01-26T05:36:54.102Z,12.56
2023-01-26T05:39:20.720Z,12.54
2023-01-26T05:41:47.391Z,12.57
2023-01-26T05:44:13.804Z,12.55
2023-01-26T05:46:40.547Z,12.54
2023-01-26T05:49:07.404Z,12.54
2023-01-26T05:51:33.895Z,12.53
2023-01-26T05:54:00.551Z,12.51
2023-01-26T05:56:26.978Z,12.52
2023-01-26T05:58:53.305Z,12.51
2023-01-26T06:01:19.807Z,12.51
2023-01-26T06:03:46.516Z,12.50
2023-01-26T06:06:12.986Z,12.50
2023-01-26T06:08:39.728Z,12.49
2023-01-26T06:11:06.081Z,12.50
2023-01-26T06:13:32.447Z,12.50
2023-01-26T06:15:58.820Z,12.51
2023-01-26T06:18:25.478Z,12.50
2023-01-26T06:20:52.103Z,12.49
2023-01-26T06:23:18.452Z,12.49
2023-01-26T06:25:45.185Z,12.49
2023-01-26T06:28:11.804Z,12.49
2023-01-26T06:30:38.452Z,12.48
2023-01-26T06:33:05.155Z,12.48
2023-01-26T06:35:32.091Z,12.48
2023-01-26T06:37:58.685Z,12.48
2023-01-26T06:40:25.287Z,12.48
2023-01-26T06:42:51.743Z,12.49
2023-01-26T06:45:19.493Z,12.49
2023-01-26T06:47:45.983Z,12.51
2023-01-26T06:50:12.764Z,12.49
2023-01-26T06:52:41.421Z,12.46
2023-01-26T06:55:08.574Z,12.47
2023-01-26T06:57:35.122Z,12.47
2023-01-26T07:00:02.274Z,12.46
2023-01-26T07:02:29.030Z,12.46
2023-01-26T07:04:55.776Z,12.45
2023-01-26T07:07:22.232Z,12.46
2023-01-26T07:09:48.898Z,12.45
2023-01-26T07:12:15.577Z,12.46
2023-01-26T07:14:42.110Z,12.45
2023-01-26T07:17:08.915Z,12.44
2023-01-26T07:19:35.511Z,12.45
2023-01-26T07:22:01.947Z,12.42
2023-01-26T07:24:28.347Z,12.42
2023-01-26T07:26:55.275Z,12.43
2023-01-26T07:29:21.822Z,12.42
2023-01-26T07:31:48.312Z,12.41
2023-01-26T07:34:15.368Z,12.41
2023-01-26T07:36:42.037Z,12.42
2023-01-26T07:39:08.918Z,12.42
2023-01-26T07:41:35.463Z,12.41
2023-01-26T07:44:02.087Z,12.41
2023-01-26T07:46:28.864Z,12.41
2023-01-26T07:48:55.462Z,12.41
2023-01-26T07:51:22.123Z,12.39
2023-01-26T07:53:49.446Z,12.39
2023-01-26T07:56:15.891Z,12.38
2023-01-26T07:58:42.570Z,12.37
2023-01-26T08:01:09.182Z,12.40
2023-01-26T08:03:35.525Z,12.40
2023-01-26T08:06:01.934Z,12.38
2023-01-26T08:08:28.383Z,12.38
2023-01-26T08:10:54.962Z,12.36
2023-01-26T08:13:34.381Z,12.35
2023-01-26T08:16:01.429Z,12.37
2023-01-26T08:18:27.919Z,12.38
2023-01-26T08:20:54.378Z,12.37
2023-01-26T08:23:20.708Z,12.36
2023-01-26T08:25:48.043Z,12.36
2023-01-26T08:28:14.655Z,12.38
2023-01-26T08:30:41.028Z,12.37
2023-01-26T08:33:08.073Z,12.36
2023-01-26T08:35:34.527Z,12.35
2023-01-26T08:38:01.461Z,12.35
2023-01-26T08:40:27.818Z,12.34
2023-01-26T08:42:54.546Z,12.36
2023-01-26T08:45:21.088Z,12.34
2023-01-26T08:47:47.885Z,12.34
2023-01-26T08:50:14.467Z,12.33
2023-01-26T08:52:41.115Z,12.33
2023-01-26T08:55:07.868Z,12.35
2023-01-26T08:57:34.772Z,12.33
2023-01-26T09:00:01.363Z,12.32
2023-01-26T09:02:27.816Z,12.31
2023-01-26T09:04:54.230Z,12.29
2023-01-26T09:07:21.312Z,12.31
2023-01-26T09:09:48.195Z,12.32
2023-01-26T09:12:15.030Z,12.30
2023-01-26T09:14:41.589Z,12.31
2023-01-26T09:17:08.651Z,12.32
2023-01-26T09:19:35.124Z,12.36
2023-01-26T09:22:01.619Z,12.35
2023-01-26T09:24:28.107Z,12.35
2023-01-26T09:26:55.226Z,12.36
2023-01-26T09:29:21.731Z,12.34
2023-01-26T09:31:48.300Z,12.31
2023-01-26T09:34:14.903Z,12.28
2023-01-26T09:36:41.645Z,12.30
2023-01-26T09:39:08.241Z,12.28
2023-01-26T09:41:34.928Z,12.21
2023-01-26T09:44:01.658Z,12.22
2023-01-26T09:46:28.542Z,12.23
2023-01-26T09:48:55.213Z,12.25
2023-01-26T09:51:21.747Z,12.28
2023-01-26T09:53:48.734Z,12.29
2023-01-26T09:56:15.275Z,12.34
2023-01-26T09:58:42.054Z,12.40
2023-01-26T10:01:08.488Z,12.45
2023-01-26T10:03:35.153Z,12.54
2023-01-26T10:06:02.182Z,12.60
2023-01-26T10:08:28.732Z,12.69
2023-01-26T10:10:55.024Z,12.76
2023-01-26T10:13:21.484Z,12.82
2023-01-26T10:15:47.814Z,12.85
2023-01-26T10:18:14.224Z,12.91
2023-01-26T10:20:40.646Z,12.97
2023-01-26T10:23:07.406Z,13.03
2023-01-26T10:25:33.820Z,13.09
2023-01-26T10:28:00.175Z,13.13
2023-01-26T10:30:26.724Z,13.16
2023-01-26T10:32:53.373Z,13.20
2023-01-26T10:35:20.139Z,13.23
2023-01-26T10:37:46.889Z,13.28
2023-01-26T10:40:13.774Z,13.31
2023-01-26T10:42:40.168Z,13.30
2023-01-26T10:45:06.801Z,13.34
2023-01-26T10:47:33.225Z,13.34
2023-01-26T10:49:59.569Z,13.37
2023-01-26T10:52:26.024Z,13.37
2023-01-26T10:54:53.037Z,13.38
2023-01-26T10:57:19.500Z,13.40
2023-01-26T10:59:46.114Z,13.43
2023-01-26T11:02:12.878Z,13.45
2023-01-26T11:04:39.816Z,13.51
2023-01-26T11:07:06.799Z,13.53
2023-01-26T11:09:33.158Z,13.56
2023-01-26T11:11:59.685Z,13.61
2023-01-26T11:14:26.210Z,13.63
2023-01-26T11:16:52.571Z,13.68
2023-01-26T11:19:21.012Z,13.74
2023-01-26T11:21:47.891Z,13.79
2023-01-26T11:24:14.986Z,13.85
2023-01-26T11:26:41.418Z,13.89
2023-01-26T11:29:07.850Z,13.94
2023-01-26T11:31:34.441Z,14.01
2023-01-26T11:34:00.932Z,14.06
2023-01-26T11:36:28.284Z,14.13
2023-01-26T11:38:55.048Z,14.16
2023-01-26T11:41:21.446Z,14.22
2023-01-26T11:43:47.904Z,14.26
2023-01-26T11:46:14.751Z,14.32
2023-01-26T11:48:41.153Z,14.38
2023-01-26T11:51:07.541Z,14.39
2023-01-26T11:53:33.906Z,14.42
2023-01-26T11:56:00.619Z,14.45
2023-01-26T11:58:27.111Z,14.48
2023-01-26T12:00:54.450Z,14.52
2023-01-26T12:03:21.572Z,14.55
2023-01-26T12:05:48.337Z,14.60
2023-01-26T12:08:14.622Z,14.63
2023-01-26T12:10:41.635Z,14.65
2023-01-26T12:13:08.150Z,14.69
2023-01-26T12:15:34.673Z,14.71
2023-01-26T12:18:01.002Z,14.76
2023-01-26T12:20:27.693Z,14.80
2023-01-26T12:22:54.197Z,14.83
2023-01-26T12:25:21.294Z,14.87
2023-01-26T12:27:47.816Z,14.97
2023-01-26T12:30:14.897Z,15.09
2023-01-26T12:32:41.790Z,15.18
2023-01-26T12:35:08.904Z,15.24
2023-01-26T12:37:35.605Z,15.33
2023-01-26T12:40:01.983Z,15.36
2023-01-26T12:42:28.837Z,15.40
2023-01-26T12:44:56.018Z,15.47
2023-01-26T12:47:22.617Z,15.50
2023-01-26T12:49:49.553Z,15.55
2023-01-26T12:52:16.482Z,15.62
2023-01-26T12:54:43.219Z,15.68
2023-01-26T12:57:09.909Z,15.79
2023-01-26T12:59:46.561Z,15.85
2023-01-26T13:02:15.313Z,15.88
2023-01-26T13:04:41.954Z,15.91
2023-01-26T13:07:09.125Z,15.97
2023-01-26T13:09:35.893Z,16.03
2023-01-26T13:12:02.309Z,16.05
2023-01-26T13:14:29.607Z,16.13
2023-01-26T13:16:55.995Z,16.16
2023-01-26T13:19:22.817Z,16.18
2023-01-26T13:21:49.752Z,16.24
2023-01-26T13:24:16.174Z,16.31
2023-01-26T13:26:42.588Z,16.33
2023-01-26T13:29:09.332Z,16.35
2023-01-26T13:31:35.946Z,16.43
2023-01-26T13:34:02.497Z,16.48
2023-01-26T13:36:29.078Z,16.49
2023-01-26T13:38:55.898Z,16.55
2023-01-26T13:41:23.157Z,16.58
2023-01-26T13:43:49.877Z,16.62
2023-01-26T13:46:16.858Z,16.59
2023-01-26T13:48:43.270Z,16.61
2023-01-26T13:51:10.134Z,16.65
2023-01-26T13:53:37.153Z,16.72
2023-01-26T13:56:04.249Z,16.70
2023-01-26T13:58:30.853Z,16.74
2023-01-26T14:00:57.504Z,16.77
2023-01-26T14:03:24.280Z,16.83
2023-01-26T14:05:51.012Z,16.84
2023-01-26T14:08:17.689Z,16.83
2023-01-26T14:10:44.210Z,16.87
2023-01-26T14:13:10.714Z,16.89
2023-01-26T14:15:37.413Z,16.92
2023-01-26T14:18:03.894Z,16.96
2023-01-26T14:20:30.623Z,16.96
2023-01-26T14:22:57.455Z,16.98
2023-01-26T14:25:23.954Z,16.99
2023-01-26T14:27:50.386Z,16.99
2023-01-26T14:30:17.252Z,17.01
2023-01-26T14:32:44.062Z,16.97
2023-01-26T14:35:10.801Z,17.00
2023-01-26T14:37:37.477Z,16.94
2023-01-26T14:40:04.233Z,16.93
2023-01-26T14:42:30.942Z,16.94
2023-01-26T14:44:57.518Z,16.93
2023-01-26T14:47:23.856Z,16.93
2023-01-26T14:49:50.153Z,16.91
2023-01-26T14:52:16.513Z,16.88
2023-01-26T14:54:43.187Z,16.89
2023-01-26T14:57:10.012Z,16.89
2023-01-26T14:59:36.675Z,16.89
2023-01-26T15:02:03.491Z,16.86
2023-01-26T15:04:30.125Z,16.84
2023-01-26T15:06:56.520Z,16.86
2023-01-26T15:09:23.296Z,16.84
2023-01-26T15:11:50.204Z,16.83
2023-01-26T15:14:17.078Z,16.82
2023-01-26T15:16:43.813Z,16.81
2023-01-26T15:19:10.173Z,16.81
2023-01-26T15:21:36.916Z,16.79
2023-01-26T15:24:03.426Z,16.78
2023-01-26T15:26:30.245Z,16.78
2023-01-26T15:28:56.548Z,16.78
2023-01-26T15:31:23.558Z,16.77
2023-01-26T15:33:49.917Z,16.74
2023-01-26T15:36:16.243Z,16.73
2023-01-26T15:38:43.147Z,16.74
2023-01-26T15:41:09.534Z,16.72
2023-01-26T15:43:36.103Z,16.72
2023-01-26T15:46:02.787Z,16.72
2023-01-26T15:48:29.406Z,16.71
2023-01-26T15:50:56.105Z,16.73
2023-01-26T15:53:22.604Z,16.70
2023-01-26T15:55:49.527Z,16.72
2023-01-26T15:58:16.512Z,16.67
2023-01-26T16:00:43.401Z,16.65
2023-01-26T16:03:09.844Z,16.66
2023-01-26T16:05:36.278Z,16.65
2023-01-26T16:08:02.794Z,16.64
2023-01-26T16:10:29.304Z,16.63
2023-01-26T16:12:55.699Z,16.59
2023-01-26T16:15:22.470Z,16.61
2023-01-26T16:17:48.912Z,16.64
2023-01-26T16:20:16.103Z,16.68
2023-01-26T16:22:42.896Z,16.76
2023-01-26T16:25:10.230Z,16.82
2023-01-26T16:27:37.282Z,16.88
2023-01-26T16:30:03.954Z,16.91
2023-01-26T16:32:30.403Z,16.97
2023-01-26T16:34:56.861Z,17.04
2023-01-26T16:37:23.634Z,17.09
2023-01-26T16:39:50.391Z,17.12
2023-01-26T16:42:16.904Z,17.18
2023-01-26T16:44:44.007Z,17.23
2023-01-26T16:47:11.181Z,17.28
2023-01-26T16:49:37.642Z,17.35
2023-01-26T16:52:04.472Z,17.39
2023-01-26T16:54:31.260Z,17.49
2023-01-26T16:56:57.757Z,17.52
2023-01-26T16:59:24.375Z,17.55
2023-01-26T17:01:51.203Z,17.55
2023-01-26T17:04:17.629Z,17.68
2023-01-26T17:06:44.162Z,17.69
2023-01-26T17:09:10.642Z,17.75
2023-01-26T17:11:37.514Z,17.82
2023-01-26T17:14:03.909Z,17.88
2023-01-26T17:16:30.313Z,17.91
2023-01-26T17:18:57.393Z,17.93
2023-01-26T17:21:24.118Z,17.92
2023-01-26T17:23:51.085Z,18.01
2023-01-26T17:26:17.654Z,18.02
2023-01-26T17:28:44.116Z,18.00
2023-01-26T17:31:10.558Z,18.00
2023-01-26T17:33:37.524Z,18.06
2023-01-26T17:36:04.262Z,18.07
2023-01-26T17:38:30.703Z,18.07
2023-01-26T17:40:57.765Z,18.09
2023-01-26T17:43:24.682Z,18.13
2023-01-26T17:45:51.647Z,18.12
2023-01-26T17:48:18.315Z,18.11
2023-01-26T17:50:44.991Z,18.13
2023-01-26T17:53:11.411Z,18.15
2023-01-26T17:55:37.715Z,18.05
2023-01-26T17:58:04.739Z,17.96
2023-01-26T18:00:31.085Z,17.96
2023-01-26T18:02:58.203Z,17.90
2023-01-26T18:05:24.559Z,17.89
2023-01-26T18:07:51.182Z,17.83
2023-01-26T18:10:17.623Z,17.81
2023-01-26T18:12:44.298Z,17.82
2023-01-26T18:15:11.014Z,17.80
2023-01-26T18:17:37.841Z,17.79
2023-01-26T18:20:05.084Z,17.79
2023-01-26T18:22:32.035Z,17.78
2023-01-26T18:24:58.733Z,17.77
2023-01-26T18:27:25.478Z,17.79
2023-01-26T18:29:52.550Z,17.83
2023-01-26T18:32:19.273Z,17.85
2023-01-26T18:34:46.046Z,17.87
2023-01-26T18:37:12.528Z,17.86
2023-01-26T18:39:38.965Z,17.87
2023-01-26T18:42:05.483Z,17.91
2023-01-26T18:44:32.325Z,17.91
2023-01-26T18:46:58.935Z,17.91
2023-01-26T18:49:25.849Z,17.92
2023-01-26T18:51:52.451Z,17.94
2023-01-26T18:54:18.977Z,17.92
2023-01-26T18:56:45.697Z,17.93
2023-01-26T18:59:12.728Z,17.92
2023-01-26T19:01:39.921Z,17.94
2023-01-26T19:04:06.880Z,17.94
2023-01-26T19:06:33.689Z,17.94
2023-01-26T19:09:00.458Z,17.95
2023-01-26T19:11:27.976Z,17.92
2023-01-26T19:13:55.152Z,17.91
2023-01-26T19:16:22.461Z,17.92
2023-01-26T19:18:48.999Z,17.91
2023-01-26T19:21:15.654Z,17.90
2023-01-26T19:23:42.091Z,17.90
2023-01-26T19:26:08.781Z,17.90
2023-01-26T19:28:35.276Z,17.90
2023-01-26T19:31:01.672Z,17.90
2023-01-26T19:33:28.095Z,17.89
2023-01-26T19:35:54.781Z,17.87
2023-01-26T19:38:21.233Z,17.88
2023-01-26T19:40:47.643Z,17.87
2023-01-26T19:43:14.110Z,17.87
2023-01-26T19:45:40.705Z,17.85
2023-01-26T19:48:07.209Z,17.85
2023-01-26T19:50:33.613Z,17.84
2023-01-26T19:53:00.136Z,17.84
2023-01-26T19:55:26.508Z,17.84
2023-01-26T19:57:53.104Z,17.82
2023-01-26T20:00:19.714Z,17.83
2023-01-26T20:02:46.067Z,17.82
2023-01-26T20:05:13.099Z,17.89
2023-01-26T20:07:39.748Z,17.95
2023-01-26T20:10:06.200Z,18.03
2023-01-26T20:12:32.602Z,18.09
2023-01-26T20:15:00.641Z,18.12
2023-01-26T20:17:27.354Z,18.17
2023-01-26T20:19:53.892Z,18.24
2023-01-26T20:22:20.536Z,18.28
2023-01-26T20:24:47.181Z,18.34
2023-01-26T20:27:14.098Z,18.39
2023-01-26T20:29:40.929Z,18.47
2023-01-26T20:32:07.355Z,18.54
2023-01-26T20:34:33.719Z,18.62
2023-01-26T20:37:00.238Z,18.70
2023-01-26T20:39:27.147Z,18.73
2023-01-26T20:41:53.522Z,18.79
2023-01-26T20:44:20.035Z,18.85
2023-01-26T20:46:46.996Z,18.91
2023-01-26T20:49:13.487Z,18.93
2023-01-26T20:51:40.096Z,18.96
2023-01-26T20:54:06.557Z,19.00
2023-01-26T20:56:33.298Z,19.06
2023-01-26T20:58:59.843Z,19.09
2023-01-26T21:01:26.870Z,19.12
2023-01-26T21:03:53.856Z,19.14
2023-01-26T21:06:20.584Z,19.17
2023-01-26T21:08:47.113Z,19.19
2023-01-26T21:11:13.643Z,19.39
2023-01-26T21:13:40.040Z,19.35
2023-01-26T21:16:06.707Z,19.37
2023-01-26T21:18:33.167Z,19.41
2023-01-26T21:20:59.758Z,19.44
2023-01-26T21:23:26.375Z,19.48
2023-01-26T21:25:52.748Z,19.49
2023-01-26T21:28:19.271Z,19.54
2023-01-26T21:30:45.807Z,19.56
2023-01-26T21:33:12.157Z,19.60
2023-01-26T21:35:38.645Z,19.63
2023-01-26T21:38:05.104Z,19.64
2023-01-26T21:40:31.608Z,19.67
2023-01-26T21:42:57.975Z,19.68
2023-01-26T21:45:25.033Z,19.71
2023-01-26T21:47:51.527Z,19.74
2023-01-26T21:50:18.310Z,19.75
2023-01-26T21:52:44.906Z,19.74
2023-01-26T21:55:11.614Z,19.76
2023-01-26T21:57:38.346Z,19.78
2023-01-26T22:00:04.862Z,19.81
2023-01-26T22:02:31.459Z,19.80
2023-01-26T22:04:57.839Z,19.83
2023-01-26T22:07:24.678Z,19.83
2023-01-26T22:09:51.752Z,19.82
2023-01-26T22:12:18.203Z,19.83
2023-01-26T22:14:44.669Z,19.77
2023-01-26T22:17:11.184Z,19.75
2023-01-26T22:19:37.654Z,19.68
2023-01-26T22:22:04.118Z,19.68
2023-01-26T22:24:31.168Z,19.68
2023-01-26T22:26:57.807Z,19.66
2023-01-26T22:29:24.596Z,19.64
2023-01-26T22:31:51.744Z,19.56
2023-01-26T22:34:18.276Z,19.49
2023-01-26T22:36:44.770Z,19.45
2023-01-26T22:39:11.350Z,19.39
2023-01-26T22:41:38.074Z,19.36
2023-01-26T22:44:04.535Z,19.32
2023-01-26T22:46:31.082Z,19.32
2023-01-26T22:48:57.637Z,19.28
2023-01-26T22:51:24.107Z,19.28
2023-01-26T22:53:50.451Z,19.22
2023-01-26T22:56:17.179Z,19.14
2023-01-26T22:58:57.072Z,19.16
2023-01-26T23:01:25.177Z,19.15
2023-01-26T23:03:52.115Z,19.13
2023-01-26T23:06:18.956Z,19.11
2023-01-26T23:08:46.274Z,19.10
2023-01-26T23:11:12.975Z,19.04
2023-01-26T23:13:42.055Z,19.06
2023-01-26T23:16:09.279Z,19.04
2023-01-26T23:18:35.790Z,19.01
2023-01-26T23:21:02.325Z,18.95
2023-01-26T23:23:29.432Z,19.00
2023-01-26T23:25:55.907Z,18.87
2023-01-26T23:28:22.417Z,18.92
2023-01-26T23:30:49.457Z,18.83
2023-01-26T23:33:16.057Z,18.78
2023-01-26T23:35:42.494Z,18.75
2023-01-26T23:38:09.010Z,18.71
2023-01-26T23:40:35.577Z,18.65
2023-01-26T23:43:15.711Z,18.61
2023-01-26T23:45:43.351Z,18.55
2023-01-26T23:48:09.894Z,18.58
2023-01-26T23:50:36.529Z,18.54
2023-01-26T23:53:03.131Z,18.48
2023-01-26T23:55:29.938Z,18.48
2023-01-26T23:57:56.287Z,18.44
